sensor_id;sensor_type;location;lat;lon;timestamp;temperature;humidity
68556;HTU21D;55544;51.032;5.866;2023-07-20T00:00:23;19.18;73.05
68556;HTU21D;55544;51.032;5.866;2023-07-20T00:02:50;19.15;73.10
68556;HTU21D;55544;51.032;5.866;2023-07-20T00:05:16;19.09;73.29
68556;HTU21D;55544;51.032;5.866;2023-07-20T00:07:47;19.08;73.41
68556;HTU21D;55544;51.032;5.866;2023-07-20T00:10:13;19.06;73.50
68556;HTU21D;55544;51.032;5.866;2023-07-20T00:12:38;19.02;73.71
68556;HTU21D;55544;51.032;5.866;2023-07-20T00:15:04;19.03;73.70
68556;HTU21D;55544;51.032;5.866;2023-07-20T00:17:30;19.01;73.78
68556;HTU21D;55544;51.032;5.866;2023-07-20T00:19:56;18.99;73.83
68556;HTU21D;55544;51.032;5.866;2023-07-20T00:22:22;18.95;73.73
68556;HTU21D;55544;51.032;5.866;2023-07-20T00:24:47;18.85;73.99
68556;HTU21D;55544;51.032;5.866;2023-07-20T00:27:15;18.79;74.25
68556;HTU21D;55544;51.032;5.866;2023-07-20T00:29:40;18.71;74.71
68556;HTU21D;55544;51.032;5.866;2023-07-20T00:32:08;18.67;75.12
68556;HTU21D;55544;51.032;5.866;2023-07-20T00:34:34;18.58;75.76
68556;HTU21D;55544;51.032;5.866;2023-07-20T00:37:00;18.54;76.32
68556;HTU21D;55544;51.032;5.866;2023-07-20T00:39:25;18.49;76.64
68556;HTU21D;55544;51.032;5.866;2023-07-20T00:41:51;18.44;76.97
68556;HTU21D;55544;51.032;5.866;2023-07-20T00:44:17;18.41;77.21
68556;HTU21D;55544;51.032;5.866;2023-07-20T00:46:43;18.38;77.40
68556;HTU21D;55544;51.032;5.866;2023-07-20T00:49:09;18.38;77.47
68556;HTU21D;55544;51.032;5.866;2023-07-20T00:51:37;18.35;77.68
68556;HTU21D;55544;51.032;5.866;2023-07-20T00:54:03;18.29;77.89
68556;HTU21D;55544;51.032;5.866;2023-07-20T00:56:29;18.25;78.17
68556;HTU21D;55544;51.032;5.866;2023-07-20T00:58:55;18.27;78.24
68556;HTU21D;55544;51.032;5.866;2023-07-20T01:01:22;18.21;78.48
68556;HTU21D;55544;51.032;5.866;2023-07-20T01:03:48;18.15;78.53
68556;HTU21D;55544;51.032;5.866;2023-07-20T01:09:18;18.09;78.84
68556;HTU21D;55544;51.032;5.866;2023-07-20T01:14:32;18.04;79.17
68556;HTU21D;55544;51.032;5.866;2023-07-20T01:16:59;18.02;79.31
68556;HTU21D;55544;51.032;5.866;2023-07-20T01:19:25;18.00;79.33
68556;HTU21D;55544;51.032;5.866;2023-07-20T01:21:59;18.02;79.45
68556;HTU21D;55544;51.032;5.866;2023-07-20T01:30:24;17.97;79.76
68556;HTU21D;55544;51.032;5.866;2023-07-20T01:32:54;17.94;79.90
68556;HTU21D;55544;51.032;5.866;2023-07-20T01:35:29;17.96;79.97
68556;HTU21D;55544;51.032;5.866;2023-07-20T01:37:56;17.95;80.07
68556;HTU21D;55544;51.032;5.866;2023-07-20T01:40:25;17.99;79.99
68556;HTU21D;55544;51.032;5.866;2023-07-20T01:42:52;18.00;79.85
68556;HTU21D;55544;51.032;5.866;2023-07-20T01:45:19;18.00;79.80
68556;HTU21D;55544;51.032;5.866;2023-07-20T01:47:44;17.98;79.84
68556;HTU21D;55544;51.032;5.866;2023-07-20T01:50:10;17.98;79.98
68556;HTU21D;55544;51.032;5.866;2023-07-20T01:52:36;17.97;80.07
68556;HTU21D;55544;51.032;5.866;2023-07-20T01:55:03;17.99;80.09
68556;HTU21D;55544;51.032;5.866;2023-07-20T01:57:31;18.03;80.04
68556;HTU21D;55544;51.032;5.866;2023-07-20T01:59:57;18.03;79.91
68556;HTU21D;55544;51.032;5.866;2023-07-20T02:02:26;18.00;79.96
68556;HTU21D;55544;51.032;5.866;2023-07-20T02:04:52;18.00;79.89
68556;HTU21D;55544;51.032;5.866;2023-07-20T02:07:17;18.02;79.76
68556;HTU21D;55544;51.032;5.866;2023-07-20T02:09:43;18.00;79.73
68556;HTU21D;55544;51.032;5.866;2023-07-20T02:12:09;18.00;79.72
68556;HTU21D;55544;51.032;5.866;2023-07-20T02:14:35;18.00;79.51
68556;HTU21D;55544;51.032;5.866;2023-07-20T02:17:00;18.02;79.40
68556;HTU21D;55544;51.032;5.866;2023-07-20T02:19:29;18.02;79.31
68556;HTU21D;55544;51.032;5.866;2023-07-20T02:21:55;18.02;78.93
68556;HTU21D;55544;51.032;5.866;2023-07-20T02:24:21;17.96;78.85
68556;HTU21D;55544;51.032;5.866;2023-07-20T02:26:46;17.92;78.98
68556;HTU21D;55544;51.032;5.866;2023-07-20T02:29:12;17.85;78.95
68556;HTU21D;55544;51.032;5.866;2023-07-20T02:31:38;17.80;78.98
68556;HTU21D;55544;51.032;5.866;2023-07-20T02:34:07;17.75;79.10
68556;HTU21D;55544;51.032;5.866;2023-07-20T02:36:34;17.67;79.30
68556;HTU21D;55544;51.032;5.866;2023-07-20T02:39:00;17.68;79.17
68556;HTU21D;55544;51.032;5.866;2023-07-20T02:41:27;17.65;79.22
68556;HTU21D;55544;51.032;5.866;2023-07-20T02:43:53;17.61;79.29
68556;HTU21D;55544;51.032;5.866;2023-07-20T02:46:18;17.56;79.33
68556;HTU21D;55544;51.032;5.866;2023-07-20T02:48:44;17.52;79.49
68556;HTU21D;55544;51.032;5.866;2023-07-20T02:51:10;17.49;79.71
68556;HTU21D;55544;51.032;5.866;2023-07-20T02:53:36;17.46;79.75
68556;HTU21D;55544;51.032;5.866;2023-07-20T02:56:02;17.44;79.70
68556;HTU21D;55544;51.032;5.866;2023-07-20T02:58:28;17.45;79.83
68556;HTU21D;55544;51.032;5.866;2023-07-20T03:00:54;17.44;80.14
68556;HTU21D;55544;51.032;5.866;2023-07-20T03:03:19;17.44;80.51
68556;HTU21D;55544;51.032;5.866;2023-07-20T03:05:45;17.47;80.49
68556;HTU21D;55544;51.032;5.866;2023-07-20T03:08:11;17.48;80.43
68556;HTU21D;55544;51.032;5.866;2023-07-20T03:10:41;17.49;80.41
68556;HTU21D;55544;51.032;5.866;2023-07-20T03:13:07;17.47;80.27
68556;HTU21D;55544;51.032;5.866;2023-07-20T03:15:33;17.47;80.18
68556;HTU21D;55544;51.032;5.866;2023-07-20T03:18:00;17.47;80.17
68556;HTU21D;55544;51.032;5.866;2023-07-20T03:20:27;17.47;80.12
68556;HTU21D;55544;51.032;5.866;2023-07-20T03:22:53;17.48;80.26
68556;HTU21D;55544;51.032;5.866;2023-07-20T03:25:19;17.46;80.33
68556;HTU21D;55544;51.032;5.866;2023-07-20T03:27:45;17.45;80.40
68556;HTU21D;55544;51.032;5.866;2023-07-20T03:30:11;17.48;80.12
68556;HTU21D;55544;51.032;5.866;2023-07-20T03:32:37;17.43;80.22
68556;HTU21D;55544;51.032;5.866;2023-07-20T03:35:03;17.35;80.49
68556;HTU21D;55544;51.032;5.866;2023-07-20T03:37:30;17.33;80.84
68556;HTU21D;55544;51.032;5.866;2023-07-20T03:39:55;17.34;80.99
68556;HTU21D;55544;51.032;5.866;2023-07-20T03:42:23;17.37;81.02
68556;HTU21D;55544;51.032;5.866;2023-07-20T03:44:48;17.40;81.01
68556;HTU21D;55544;51.032;5.866;2023-07-20T03:47:14;17.41;80.87
68556;HTU21D;55544;51.032;5.866;2023-07-20T03:49:40;17.40;81.05
68556;HTU21D;55544;51.032;5.866;2023-07-20T03:52:06;17.41;81.07
68556;HTU21D;55544;51.032;5.866;2023-07-20T03:54:32;17.46;80.96
68556;HTU21D;55544;51.032;5.866;2023-07-20T03:56:57;17.48;80.94
68556;HTU21D;55544;51.032;5.866;2023-07-20T03:59:23;17.50;81.00
68556;HTU21D;55544;51.032;5.866;2023-07-20T04:01:49;17.55;80.84
68556;HTU21D;55544;51.032;5.866;2023-07-20T04:04:16;17.55;80.81
68556;HTU21D;55544;51.032;5.866;2023-07-20T04:06:42;17.60;80.92
68556;HTU21D;55544;51.032;5.866;2023-07-20T04:09:12;17.62;80.68
68556;HTU21D;55544;51.032;5.866;2023-07-20T04:11:38;17.66;80.62
68556;HTU21D;55544;51.032;5.866;2023-07-20T04:14:04;17.66;80.58
68556;HTU21D;55544;51.032;5.866;2023-07-20T04:16:30;17.68;80.51
68556;HTU21D;55544;51.032;5.866;2023-07-20T04:18:56;17.68;80.61
68556;HTU21D;55544;51.032;5.866;2023-07-20T04:21:23;17.70;80.67
68556;HTU21D;55544;51.032;5.866;2023-07-20T04:23:48;17.74;80.48
68556;HTU21D;55544;51.032;5.866;2023-07-20T04:26:14;17.72;80.47
68556;HTU21D;55544;51.032;5.866;2023-07-20T04:28:41;17.74;80.64
68556;HTU21D;55544;51.032;5.866;2023-07-20T04:31:14;17.78;80.70
68556;HTU21D;55544;51.032;5.866;2023-07-20T04:33:42;17.79;80.40
68556;HTU21D;55544;51.032;5.866;2023-07-20T04:36:08;17.79;80.49
68556;HTU21D;55544;51.032;5.866;2023-07-20T04:38:35;17.81;80.57
68556;HTU21D;55544;51.032;5.866;2023-07-20T04:41:10;17.81;80.57
68556;HTU21D;55544;51.032;5.866;2023-07-20T04:43:44;17.87;80.58
68556;HTU21D;55544;51.032;5.866;2023-07-20T04:46:11;17.89;80.16
68556;HTU21D;55544;51.032;5.866;2023-07-20T04:48:37;17.90;80.18
68556;HTU21D;55544;51.032;5.866;2023-07-20T04:51:03;17.92;80.07
68556;HTU21D;55544;51.032;5.866;2023-07-20T04:53:28;17.96;80.30
68556;HTU21D;55544;51.032;5.866;2023-07-20T04:55:55;17.99;80.18
68556;HTU21D;55544;51.032;5.866;2023-07-20T04:58:23;18.04;79.97
68556;HTU21D;55544;51.032;5.866;2023-07-20T05:00:50;18.06;79.93
68556;HTU21D;55544;51.032;5.866;2023-07-20T05:03:16;18.07;80.01
68556;HTU21D;55544;51.032;5.866;2023-07-20T05:05:43;18.07;80.04
68556;HTU21D;55544;51.032;5.866;2023-07-20T05:08:10;18.10;80.14
68556;HTU21D;55544;51.032;5.866;2023-07-20T05:10:35;18.11;79.88
68556;HTU21D;55544;51.032;5.866;2023-07-20T05:13:01;18.11;79.74
68556;HTU21D;55544;51.032;5.866;2023-07-20T05:15:27;18.14;79.92
68556;HTU21D;55544;51.032;5.866;2023-07-20T05:17:53;18.20;79.85
68556;HTU21D;55544;51.032;5.866;2023-07-20T05:20:19;18.24;79.77
68556;HTU21D;55544;51.032;5.866;2023-07-20T05:22:45;18.28;79.69
68556;HTU21D;55544;51.032;5.866;2023-07-20T05:25:12;18.32;79.53
68556;HTU21D;55544;51.032;5.866;2023-07-20T05:27:39;18.29;79.23
68556;HTU21D;55544;51.032;5.866;2023-07-20T05:30:06;18.24;79.33
68556;HTU21D;55544;51.032;5.866;2023-07-20T05:32:33;18.24;79.42
68556;HTU21D;55544;51.032;5.866;2023-07-20T05:34:59;18.24;79.53
68556;HTU21D;55544;51.032;5.866;2023-07-20T05:37:24;18.32;79.58
68556;HTU21D;55544;51.032;5.866;2023-07-20T05:39:50;18.38;79.33
68556;HTU21D;55544;51.032;5.866;2023-07-20T05:42:16;18.50;79.04
68556;HTU21D;55544;51.032;5.866;2023-07-20T05:44:42;18.57;78.70
68556;HTU21D;55544;51.032;5.866;2023-07-20T05:47:08;18.69;78.11
68556;HTU21D;55544;51.032;5.866;2023-07-20T05:49:34;18.79;77.41
68556;HTU21D;55544;51.032;5.866;2023-07-20T05:52:00;18.85;77.04
68556;HTU21D;55544;51.032;5.866;2023-07-20T05:54:26;18.93;76.89
68556;HTU21D;55544;51.032;5.866;2023-07-20T05:56:53;19.02;76.28
68556;HTU21D;55544;51.032;5.866;2023-07-20T05:59:19;19.06;75.80
68556;HTU21D;55544;51.032;5.866;2023-07-20T06:01:49;19.08;75.52
68556;HTU21D;55544;51.032;5.866;2023-07-20T06:04:15;19.12;75.38
68556;HTU21D;55544;51.032;5.866;2023-07-20T06:06:41;19.15;75.25
68556;HTU21D;55544;51.032;5.866;2023-07-20T06:09:07;19.25;74.77
68556;HTU21D;55544;51.032;5.866;2023-07-20T06:11:38;19.31;74.09
68556;HTU21D;55544;51.032;5.866;2023-07-20T06:14:05;19.40;73.74
68556;HTU21D;55544;51.032;5.866;2023-07-20T06:16:30;19.44;73.15
68556;HTU21D;55544;51.032;5.866;2023-07-20T06:18:56;19.48;73.38
68556;HTU21D;55544;51.032;5.866;2023-07-20T06:21:23;19.51;73.22
68556;HTU21D;55544;51.032;5.866;2023-07-20T06:23:48;19.57;72.91
68556;HTU21D;55544;51.032;5.866;2023-07-20T06:26:14;19.60;72.61
68556;HTU21D;55544;51.032;5.866;2023-07-20T06:28:41;19.70;72.21
68556;HTU21D;55544;51.032;5.866;2023-07-20T06:31:06;19.77;71.68
68556;HTU21D;55544;51.032;5.866;2023-07-20T06:33:32;19.88;71.19
68556;HTU21D;55544;51.032;5.866;2023-07-20T06:36:00;19.95;70.93
68556;HTU21D;55544;51.032;5.866;2023-07-20T06:38:26;20.07;70.38
68556;HTU21D;55544;51.032;5.866;2023-07-20T06:40:52;20.19;69.84
68556;HTU21D;55544;51.032;5.866;2023-07-20T06:43:18;20.26;69.33
68556;HTU21D;55544;51.032;5.866;2023-07-20T06:45:44;20.28;69.16
68556;HTU21D;55544;51.032;5.866;2023-07-20T06:48:09;20.30;68.97
68556;HTU21D;55544;51.032;5.866;2023-07-20T06:50:35;20.30;68.57
68556;HTU21D;55544;51.032;5.866;2023-07-20T06:53:01;20.25;68.74
68556;HTU21D;55544;51.032;5.866;2023-07-20T06:55:29;20.31;68.71
68556;HTU21D;55544;51.032;5.866;2023-07-20T06:57:55;20.37;68.34
68556;HTU21D;55544;51.032;5.866;2023-07-20T07:00:21;20.41;68.04
68556;HTU21D;55544;51.032;5.866;2023-07-20T07:02:47;20.50;67.26
68556;HTU21D;55544;51.032;5.866;2023-07-20T07:05:12;20.44;67.34
68556;HTU21D;55544;51.032;5.866;2023-07-20T07:07:41;20.31;68.07
68556;HTU21D;55544;51.032;5.866;2023-07-20T07:10:08;20.33;68.86
68556;HTU21D;55544;51.032;5.866;2023-07-20T07:12:34;20.42;68.31
68556;HTU21D;55544;51.032;5.866;2023-07-20T07:15:00;20.48;67.76
68556;HTU21D;55544;51.032;5.866;2023-07-20T07:17:26;20.45;67.39
68556;HTU21D;55544;51.032;5.866;2023-07-20T07:19:52;20.58;67.43
68556;HTU21D;55544;51.032;5.866;2023-07-20T07:22:20;20.76;66.11
68556;HTU21D;55544;51.032;5.866;2023-07-20T07:24:47;20.84;65.43
68556;HTU21D;55544;51.032;5.866;2023-07-20T07:27:13;20.87;65.22
68556;HTU21D;55544;51.032;5.866;2023-07-20T07:29:42;20.78;65.27
68556;HTU21D;55544;51.032;5.866;2023-07-20T07:32:09;20.74;65.66
68556;HTU21D;55544;51.032;5.866;2023-07-20T07:34:36;20.64;64.98
68556;HTU21D;55544;51.032;5.866;2023-07-20T07:37:04;20.58;64.90
68556;HTU21D;55544;51.032;5.866;2023-07-20T07:39:30;20.54;64.77
68556;HTU21D;55544;51.032;5.866;2023-07-20T07:41:56;20.53;65.17
68556;HTU21D;55544;51.032;5.866;2023-07-20T07:44:22;20.60;65.42
68556;HTU21D;55544;51.032;5.866;2023-07-20T07:46:48;20.80;65.18
68556;HTU21D;55544;51.032;5.866;2023-07-20T07:49:15;21.06;64.90
68556;HTU21D;55544;51.032;5.866;2023-07-20T07:51:40;21.31;63.32
68556;HTU21D;55544;51.032;5.866;2023-07-20T07:54:06;21.63;62.04
68556;HTU21D;55544;51.032;5.866;2023-07-20T07:56:32;21.90;61.02
68556;HTU21D;55544;51.032;5.866;2023-07-20T07:58:58;22.01;60.49
68556;HTU21D;55544;51.032;5.866;2023-07-20T08:01:23;22.16;59.28
68556;HTU21D;55544;51.032;5.866;2023-07-20T08:03:49;22.26;58.26
68556;HTU21D;55544;51.032;5.866;2023-07-20T08:06:15;22.34;57.64
68556;HTU21D;55544;51.032;5.866;2023-07-20T08:08:41;22.41;57.31
68556;HTU21D;55544;51.032;5.866;2023-07-20T08:11:08;22.51;56.87
68556;HTU21D;55544;51.032;5.866;2023-07-20T08:13:34;22.66;56.60
68556;HTU21D;55544;51.032;5.866;2023-07-20T08:16:01;22.87;56.32
68556;HTU21D;55544;51.032;5.866;2023-07-20T08:18:30;23.09;54.94
68556;HTU21D;55544;51.032;5.866;2023-07-20T08:20:56;23.21;55.33
68556;HTU21D;55544;51.032;5.866;2023-07-20T08:23:22;23.10;56.27
68556;HTU21D;55544;51.032;5.866;2023-07-20T08:25:48;22.86;56.97
68556;HTU21D;55544;51.032;5.866;2023-07-20T08:28:14;22.64;57.78
68556;HTU21D;55544;51.032;5.866;2023-07-20T08:30:46;22.51;58.15
68556;HTU21D;55544;51.032;5.866;2023-07-20T08:33:17;22.49;58.21
68556;HTU21D;55544;51.032;5.866;2023-07-20T08:35:44;22.75;57.91
68556;HTU21D;55544;51.032;5.866;2023-07-20T08:38:10;23.07;56.69
68556;HTU21D;55544;51.032;5.866;2023-07-20T08:40:46;23.32;54.52
68556;HTU21D;55544;51.032;5.866;2023-07-20T08:43:14;23.53;53.78
68556;HTU21D;55544;51.032;5.866;2023-07-20T08:45:44;23.80;53.56
68556;HTU21D;55544;51.032;5.866;2023-07-20T08:48:11;24.09;52.46
68556;HTU21D;55544;51.032;5.866;2023-07-20T08:50:38;24.27;52.31
68556;HTU21D;55544;51.032;5.866;2023-07-20T08:53:04;24.24;52.64
68556;HTU21D;55544;51.032;5.866;2023-07-20T08:55:30;23.97;52.43
68556;HTU21D;55544;51.032;5.866;2023-07-20T08:57:58;23.51;54.01
68556;HTU21D;55544;51.032;5.866;2023-07-20T09:00:26;23.10;54.76
68556;HTU21D;55544;51.032;5.866;2023-07-20T09:02:54;22.93;55.45
68556;HTU21D;55544;51.032;5.866;2023-07-20T09:05:22;23.00;54.97
68556;HTU21D;55544;51.032;5.866;2023-07-20T09:07:48;23.18;53.54
68556;HTU21D;55544;51.032;5.866;2023-07-20T09:10:14;23.38;52.01
68556;HTU21D;55544;51.032;5.866;2023-07-20T09:12:42;23.54;52.42
68556;HTU21D;55544;51.032;5.866;2023-07-20T09:15:10;23.54;52.61
68556;HTU21D;55544;51.032;5.866;2023-07-20T09:17:36;23.56;52.88
68556;HTU21D;55544;51.032;5.866;2023-07-20T09:20:07;23.80;52.97
68556;HTU21D;55544;51.032;5.866;2023-07-20T09:22:37;23.88;53.17
68556;HTU21D;55544;51.032;5.866;2023-07-20T09:25:18;23.67;53.61
68556;HTU21D;55544;51.032;5.866;2023-07-20T09:27:47;23.53;54.13
68556;HTU21D;55544;51.032;5.866;2023-07-20T09:30:16;23.51;55.14
68556;HTU21D;55544;51.032;5.866;2023-07-20T09:32:44;23.57;54.10
68556;HTU21D;55544;51.032;5.866;2023-07-20T09:35:19;23.74;53.26
68556;HTU21D;55544;51.032;5.866;2023-07-20T09:38:01;24.00;52.19
68556;HTU21D;55544;51.032;5.866;2023-07-20T09:40:28;24.24;51.11
68556;HTU21D;55544;51.032;5.866;2023-07-20T09:42:58;24.43;50.42
68556;HTU21D;55544;51.032;5.866;2023-07-20T09:45:33;24.74;48.95
68556;HTU21D;55544;51.032;5.866;2023-07-20T09:48:06;25.23;47.25
68556;HTU21D;55544;51.032;5.866;2023-07-20T09:50:43;25.62;44.75
68556;HTU21D;55544;51.032;5.866;2023-07-20T09:53:15;25.49;45.75
68556;HTU21D;55544;51.032;5.866;2023-07-20T09:55:45;25.47;45.67
68556;HTU21D;55544;51.032;5.866;2023-07-20T09:58:12;25.32;45.19
68556;HTU21D;55544;51.032;5.866;2023-07-20T10:00:39;25.21;45.51
68556;HTU21D;55544;51.032;5.866;2023-07-20T10:03:06;25.04;46.23
68556;HTU21D;55544;51.032;5.866;2023-07-20T10:05:39;24.99;46.18
68556;HTU21D;55544;51.032;5.866;2023-07-20T10:08:11;25.10;46.29
68556;HTU21D;55544;51.032;5.866;2023-07-20T10:10:41;25.23;46.35
68556;HTU21D;55544;51.032;5.866;2023-07-20T10:13:17;25.34;46.35
68556;HTU21D;55544;51.032;5.866;2023-07-20T10:15:53;25.39;46.35
68556;HTU21D;55544;51.032;5.866;2023-07-20T10:18:25;25.39;45.87
68556;HTU21D;55544;51.032;5.866;2023-07-20T10:20:55;25.29;45.98
68556;HTU21D;55544;51.032;5.866;2023-07-20T10:23:22;25.28;46.76
68556;HTU21D;55544;51.032;5.866;2023-07-20T10:25:50;25.23;46.54
68556;HTU21D;55544;51.032;5.866;2023-07-20T10:28:16;25.17;47.00
68556;HTU21D;55544;51.032;5.866;2023-07-20T10:30:43;24.94;46.99
68556;HTU21D;55544;51.032;5.866;2023-07-20T10:33:10;24.89;48.53
68556;HTU21D;55544;51.032;5.866;2023-07-20T10:35:56;25.14;48.56
68556;HTU21D;55544;51.032;5.866;2023-07-20T10:38:58;25.47;45.77
68556;HTU21D;55544;51.032;5.866;2023-07-20T10:41:34;25.76;46.08
68556;HTU21D;55544;51.032;5.866;2023-07-20T10:44:02;25.93;45.06
68556;HTU21D;55544;51.032;5.866;2023-07-20T10:46:43;26.12;43.52
68556;HTU21D;55544;51.032;5.866;2023-07-20T10:49:13;26.31;42.41
68556;HTU21D;55544;51.032;5.866;2023-07-20T10:51:45;26.51;42.70
68556;HTU21D;55544;51.032;5.866;2023-07-20T10:56:47;26.77;42.03
68556;HTU21D;55544;51.032;5.866;2023-07-20T10:59:41;26.66;41.84
68556;HTU21D;55544;51.032;5.866;2023-07-20T11:02:07;26.41;43.00
68556;HTU21D;55544;51.032;5.866;2023-07-20T11:04:45;26.21;42.96
68556;HTU21D;55544;51.032;5.866;2023-07-20T11:07:16;26.12;43.38
68556;HTU21D;55544;51.032;5.866;2023-07-20T11:09:42;26.17;42.88
68556;HTU21D;55544;51.032;5.866;2023-07-20T11:12:16;26.21;42.92
68556;HTU21D;55544;51.032;5.866;2023-07-20T11:14:52;26.31;42.94
68556;HTU21D;55544;51.032;5.866;2023-07-20T11:17:19;26.28;42.25
68556;HTU21D;55544;51.032;5.866;2023-07-20T11:19:48;26.36;41.75
68556;HTU21D;55544;51.032;5.866;2023-07-20T11:22:17;26.65;41.07
68556;HTU21D;55544;51.032;5.866;2023-07-20T11:24:43;26.67;42.48
68556;HTU21D;55544;51.032;5.866;2023-07-20T11:27:09;26.73;42.52
68556;HTU21D;55544;51.032;5.866;2023-07-20T11:29:37;26.92;43.00
68556;HTU21D;55544;51.032;5.866;2023-07-20T11:32:03;27.06;40.20
68556;HTU21D;55544;51.032;5.866;2023-07-20T11:34:31;27.06;40.35
68556;HTU21D;55544;51.032;5.866;2023-07-20T11:36:57;27.00;40.86
68556;HTU21D;55544;51.032;5.866;2023-07-20T11:39:23;26.94;40.96
68556;HTU21D;55544;51.032;5.866;2023-07-20T11:41:54;27.06;40.62
68556;HTU21D;55544;51.032;5.866;2023-07-20T11:44:26;27.16;39.52
68556;HTU21D;55544;51.032;5.866;2023-07-20T11:47:05;27.10;39.49
68556;HTU21D;55544;51.032;5.866;2023-07-20T11:49:35;27.09;39.65
68556;HTU21D;55544;51.032;5.866;2023-07-20T11:52:03;27.31;39.60
68556;HTU21D;55544;51.032;5.866;2023-07-20T11:54:30;27.37;39.71
68556;HTU21D;55544;51.032;5.866;2023-07-20T11:56:56;27.37;39.40
68556;HTU21D;55544;51.032;5.866;2023-07-20T11:59:22;27.17;38.56
68556;HTU21D;55544;51.032;5.866;2023-07-20T12:01:48;26.99;39.30
68556;HTU21D;55544;51.032;5.866;2023-07-20T12:04:13;26.92;39.41
68556;HTU21D;55544;51.032;5.866;2023-07-20T12:06:39;26.93;39.23
68556;HTU21D;55544;51.032;5.866;2023-07-20T12:09:05;26.89;38.63
68556;HTU21D;55544;51.032;5.866;2023-07-20T12:11:32;26.80;39.54
68556;HTU21D;55544;51.032;5.866;2023-07-20T12:13:58;26.54;39.78
68556;HTU21D;55544;51.032;5.866;2023-07-20T12:16:27;26.26;40.14
68556;HTU21D;55544;51.032;5.866;2023-07-20T12:19:05;26.15;39.98
68556;HTU21D;55544;51.032;5.866;2023-07-20T12:21:31;26.01;39.65
68556;HTU21D;55544;51.032;5.866;2023-07-20T12:23:59;25.81;39.92
68556;HTU21D;55544;51.032;5.866;2023-07-20T12:26:25;25.75;40.52
68556;HTU21D;55544;51.032;5.866;2023-07-20T12:28:52;25.74;40.61
68556;HTU21D;55544;51.032;5.866;2023-07-20T12:31:18;25.73;41.16
68556;HTU21D;55544;51.032;5.866;2023-07-20T12:33:44;25.72;40.58
68556;HTU21D;55544;51.032;5.866;2023-07-20T12:36:10;25.76;40.33
68556;HTU21D;55544;51.032;5.866;2023-07-20T12:38:36;25.81;40.66
68556;HTU21D;55544;51.032;5.866;2023-07-20T12:41:03;26.01;40.14
68556;HTU21D;55544;51.032;5.866;2023-07-20T12:43:29;26.17;40.16
68556;HTU21D;55544;51.032;5.866;2023-07-20T12:45:55;26.17;40.10
68556;HTU21D;55544;51.032;5.866;2023-07-20T12:48:22;26.07;40.17
68556;HTU21D;55544;51.032;5.866;2023-07-20T12:50:48;26.06;39.91
68556;HTU21D;55544;51.032;5.866;2023-07-20T12:53:14;26.09;39.29
68556;HTU21D;55544;51.032;5.866;2023-07-20T12:55:39;26.12;39.65
68556;HTU21D;55544;51.032;5.866;2023-07-20T12:58:06;26.05;39.86
68556;HTU21D;55544;51.032;5.866;2023-07-20T13:00:32;26.18;40.46
68556;HTU21D;55544;51.032;5.866;2023-07-20T13:02:58;26.37;40.24
68556;HTU21D;55544;51.032;5.866;2023-07-20T13:05:24;26.52;39.58
68556;HTU21D;55544;51.032;5.866;2023-07-20T13:07:50;26.81;38.97
68556;HTU21D;55544;51.032;5.866;2023-07-20T13:10:16;26.89;37.95
68556;HTU21D;55544;51.032;5.866;2023-07-20T13:12:42;26.80;38.59
68556;HTU21D;55544;51.032;5.866;2023-07-20T13:15:10;26.83;38.60
68556;HTU21D;55544;51.032;5.866;2023-07-20T13:17:38;26.87;38.89
68556;HTU21D;55544;51.032;5.866;2023-07-20T13:20:06;26.86;39.06
68556;HTU21D;55544;51.032;5.866;2023-07-20T13:22:33;26.94;38.05
68556;HTU21D;55544;51.032;5.866;2023-07-20T13:24:59;26.91;38.16
68556;HTU21D;55544;51.032;5.866;2023-07-20T13:27:25;26.79;38.13
68556;HTU21D;55544;51.032;5.866;2023-07-20T13:29:52;26.68;38.10
68556;HTU21D;55544;51.032;5.866;2023-07-20T13:32:18;26.66;37.78
68556;HTU21D;55544;51.032;5.866;2023-07-20T13:34:44;26.72;37.75
68556;HTU21D;55544;51.032;5.866;2023-07-20T13:37:14;26.79;38.38
68556;HTU21D;55544;51.032;5.866;2023-07-20T13:39:39;26.82;37.91
68556;HTU21D;55544;51.032;5.866;2023-07-20T13:42:06;26.83;37.43
68556;HTU21D;55544;51.032;5.866;2023-07-20T13:44:32;26.82;37.39
68556;HTU21D;55544;51.032;5.866;2023-07-20T13:46:58;26.91;37.61
68556;HTU21D;55544;51.032;5.866;2023-07-20T13:49:24;27.05;37.88
68556;HTU21D;55544;51.032;5.866;2023-07-20T13:51:50;27.09;37.05
68556;HTU21D;55544;51.032;5.866;2023-07-20T13:54:15;27.13;36.40
68556;HTU21D;55544;51.032;5.866;2023-07-20T13:56:41;27.20;36.14
68556;HTU21D;55544;51.032;5.866;2023-07-20T13:59:07;27.25;36.23
68556;HTU21D;55544;51.032;5.866;2023-07-20T14:01:33;27.35;36.48
68556;HTU21D;55544;51.032;5.866;2023-07-20T14:04:00;27.29;36.08
68556;HTU21D;55544;51.032;5.866;2023-07-20T14:06:29;27.21;36.39
68556;HTU21D;55544;51.032;5.866;2023-07-20T14:08:54;27.23;36.47
68556;HTU21D;55544;51.032;5.866;2023-07-20T14:11:20;27.38;36.97
68556;HTU21D;55544;51.032;5.866;2023-07-20T14:13:46;27.53;36.07
68556;HTU21D;55544;51.032;5.866;2023-07-20T14:16:11;27.65;35.82
68556;HTU21D;55544;51.032;5.866;2023-07-20T14:18:37;27.61;36.08
68556;HTU21D;55544;51.032;5.866;2023-07-20T14:21:03;27.65;36.59
68556;HTU21D;55544;51.032;5.866;2023-07-20T14:23:30;27.79;36.56
68556;HTU21D;55544;51.032;5.866;2023-07-20T14:25:56;27.90;35.94
68556;HTU21D;55544;51.032;5.866;2023-07-20T14:28:21;27.97;35.16
68556;HTU21D;55544;51.032;5.866;2023-07-20T14:30:47;28.09;34.73
68556;HTU21D;55544;51.032;5.866;2023-07-20T14:33:13;28.20;34.25
68556;HTU21D;55544;51.032;5.866;2023-07-20T14:35:39;28.30;33.92
68556;HTU21D;55544;51.032;5.866;2023-07-20T14:38:04;28.46;34.46
68556;HTU21D;55544;51.032;5.866;2023-07-20T14:40:30;28.74;34.52
68556;HTU21D;55544;51.032;5.866;2023-07-20T14:42:56;28.98;34.13
68556;HTU21D;55544;51.032;5.866;2023-07-20T14:45:22;29.11;34.04
68556;HTU21D;55544;51.032;5.866;2023-07-20T14:47:47;29.19;34.21
68556;HTU21D;55544;51.032;5.866;2023-07-20T14:50:20;29.29;34.21
68556;HTU21D;55544;51.032;5.866;2023-07-20T14:52:46;29.35;34.13
68556;HTU21D;55544;51.032;5.866;2023-07-20T14:55:12;29.38;33.85
68556;HTU21D;55544;51.032;5.866;2023-07-20T14:57:38;29.36;33.65
68556;HTU21D;55544;51.032;5.866;2023-07-20T15:00:04;29.32;32.43
68556;HTU21D;55544;51.032;5.866;2023-07-20T15:02:39;29.16;31.84
68556;HTU21D;55544;51.032;5.866;2023-07-20T15:05:08;29.21;32.77
68556;HTU21D;55544;51.032;5.866;2023-07-20T15:07:35;29.58;32.53
68556;HTU21D;55544;51.032;5.866;2023-07-20T15:10:02;29.92;31.99
68556;HTU21D;55544;51.032;5.866;2023-07-20T15:12:27;30.10;31.63
68556;HTU21D;55544;51.032;5.866;2023-07-20T15:15:10;30.24;31.06
68556;HTU21D;55544;51.032;5.866;2023-07-20T15:17:38;30.27;30.83
68556;HTU21D;55544;51.032;5.866;2023-07-20T15:20:06;30.30;31.08
68556;HTU21D;55544;51.032;5.866;2023-07-20T15:22:33;30.15;30.15
68556;HTU21D;55544;51.032;5.866;2023-07-20T15:25:01;29.95;29.52
68556;HTU21D;55544;51.032;5.866;2023-07-20T15:27:27;29.77;29.67
68556;HTU21D;55544;51.032;5.866;2023-07-20T15:29:53;29.57;30.32